Decoded Metar for CYQX (GANDER in NL, CANADA) (IATA:YQX) | Meteo·Mobile Aviation Weather
aviador You're here:

CYQX Decoded Metar

GANDER in NL, CANADA
Report Time2019-02-20 20:00:00
UTC Time2019-02-20 20:12:52
Flight Rules vfr VFR
Wind300° at 27 Gusting to 33 kt
W.Decomp.*RWY 31: 26.4 kt HW 5.6 kt RCW
RWY 03: 10.1 kt HW 25 kt LCW
W.Rank300° ranks 18
Current wind is above 300° avg. (10.7)
Visibility9999 m
Phenomena:Light Shower Snow
Clouds:Few 036 Hf
Broken 070 Hf
Expected CloudBase > 2,800 ft AGL from Temp-Dew spread
Ceiling7,000 ft
Temp-18°C (ISA -32)
Dew Point-25°C (54% RH)
AAT-31.5°C
QNH1002 hPa
Density Alt-3,186 ft
Elevation495 ft
Report Wrong Elevation
Raw Report
CYQX 202000Z 30027G33KT 12SM -SHSN FEW036 BKN070 M18/M25 A2959 RMK
SC1AS7 SC TR CVCTV CLD EMBD SLP037=

Extra information for CYQX:More info

Metar Taf Metar & Taf Last 4 Metars F.Rules Stats Wind Profile Meteogram Temp Stats Airport Information Weather charts Add Link Nearby VenuesMetar ALERT Operation Metar Decoded Social comments